sensor_id;sensor_type;location;lat;lon;timestamp;temperature;humidity
15133;DHT22;7667;51.232;17.110;2023-04-16T00:02:19;6.00;99.90
15133;DHT22;7667;51.232;17.110;2023-04-16T00:04:47;5.80;99.90
15133;DHT22;7667;51.232;17.110;2023-04-16T00:07:15;5.80;99.90
15133;DHT22;7667;51.232;17.110;2023-04-16T00:09:42;5.80;99.90
15133;DHT22;7667;51.232;17.110;2023-04-16T00:12:10;5.80;99.90
15133;DHT22;7667;51.232;17.110;2023-04-16T00:14:37;6.00;99.90
15133;DHT22;7667;51.232;17.110;2023-04-16T00:17:05;6.20;99.90
15133;DHT22;7667;51.232;17.110;2023-04-16T00:19:32;6.30;99.90
15133;DHT22;7667;51.232;17.110;2023-04-16T00:22:00;6.20;99.90
15133;DHT22;7667;51.232;17.110;2023-04-16T00:24:27;6.00;99.90
15133;DHT22;7667;51.232;17.110;2023-04-16T00:26:55;5.90;99.90
15133;DHT22;7667;51.232;17.110;2023-04-16T00:29:23;5.80;99.90
15133;DHT22;7667;51.232;17.110;2023-04-16T00:31:50;5.80;99.90
15133;DHT22;7667;51.232;17.110;2023-04-16T00:34:18;5.80;99.90
15133;DHT22;7667;51.232;17.110;2023-04-16T00:36:45;5.80;99.90
15133;DHT22;7667;51.232;17.110;2023-04-16T00:39:13;5.80;99.90
15133;DHT22;7667;51.232;17.110;2023-04-16T00:41:42;5.90;99.90
15133;DHT22;7667;51.232;17.110;2023-04-16T00:44:10;5.90;99.90
15133;DHT22;7667;51.232;17.110;2023-04-16T00:46:37;5.90;99.90
15133;DHT22;7667;51.232;17.110;2023-04-16T00:49:05;5.80;99.90
15133;DHT22;7667;51.232;17.110;2023-04-16T00:51:34;5.80;99.90
15133;DHT22;7667;51.232;17.110;2023-04-16T00:54:02;5.80;99.90
15133;DHT22;7667;51.232;17.110;2023-04-16T00:56:30;5.80;99.90
15133;DHT22;7667;51.232;17.110;2023-04-16T00:58:58;5.80;99.90
15133;DHT22;7667;51.232;17.110;2023-04-16T01:01:25;5.90;99.90
15133;DHT22;7667;51.232;17.110;2023-04-16T01:03:54;6.00;99.90
15133;DHT22;7667;51.232;17.110;2023-04-16T01:06:22;6.10;99.90
15133;DHT22;7667;51.232;17.110;2023-04-16T01:08:49;6.20;99.90
15133;DHT22;7667;51.232;17.110;2023-04-16T01:11:17;6.20;99.90
15133;DHT22;7667;51.232;17.110;2023-04-16T01:13:45;6.20;99.90
15133;DHT22;7667;51.232;17.110;2023-04-16T01:16:12;6.10;99.90
15133;DHT22;7667;51.232;17.110;2023-04-16T01:18:40;6.20;99.90
15133;DHT22;7667;51.232;17.110;2023-04-16T01:21:08;6.20;99.90
15133;DHT22;7667;51.232;17.110;2023-04-16T01:23:35;6.40;99.90
15133;DHT22;7667;51.232;17.110;2023-04-16T01:26:03;6.40;99.90
15133;DHT22;7667;51.232;17.110;2023-04-16T01:28:31;6.40;99.90
15133;DHT22;7667;51.232;17.110;2023-04-16T01:30:58;6.40;99.90
15133;DHT22;7667;51.232;17.110;2023-04-16T01:33:26;6.30;99.90
15133;DHT22;7667;51.232;17.110;2023-04-16T01:35:54;6.10;99.90
15133;DHT22;7667;51.232;17.110;2023-04-16T01:38:21;6.00;99.90
15133;DHT22;7667;51.232;17.110;2023-04-16T01:40:49;5.90;99.90
15133;DHT22;7667;51.232;17.110;2023-04-16T01:43:16;5.80;99.90
15133;DHT22;7667;51.232;17.110;2023-04-16T01:45:44;5.60;99.90
15133;DHT22;7667;51.232;17.110;2023-04-16T01:48:11;5.50;99.90
15133;DHT22;7667;51.232;17.110;2023-04-16T01:50:39;5.50;99.90
15133;DHT22;7667;51.232;17.110;2023-04-16T01:53:07;5.50;99.90
15133;DHT22;7667;51.232;17.110;2023-04-16T01:55:35;5.50;99.90
15133;DHT22;7667;51.232;17.110;2023-04-16T01:58:03;5.50;99.90
15133;DHT22;7667;51.232;17.110;2023-04-16T02:00:30;5.50;99.90
15133;DHT22;7667;51.232;17.110;2023-04-16T02:02:58;5.50;99.90
15133;DHT22;7667;51.232;17.110;2023-04-16T02:05:26;5.50;99.90
15133;DHT22;7667;51.232;17.110;2023-04-16T02:07:53;5.60;99.90
15133;DHT22;7667;51.232;17.110;2023-04-16T02:10:21;5.70;99.90
15133;DHT22;7667;51.232;17.110;2023-04-16T02:12:49;5.70;99.90
15133;DHT22;7667;51.232;17.110;2023-04-16T02:15:17;5.90;99.90
15133;DHT22;7667;51.232;17.110;2023-04-16T02:17:44;6.00;99.90
15133;DHT22;7667;51.232;17.110;2023-04-16T02:20:13;6.00;99.90
15133;DHT22;7667;51.232;17.110;2023-04-16T02:22:41;6.00;99.90
15133;DHT22;7667;51.232;17.110;2023-04-16T02:25:09;5.90;99.90
15133;DHT22;7667;51.232;17.110;2023-04-16T02:27:37;5.80;99.90
15133;DHT22;7667;51.232;17.110;2023-04-16T02:30:05;5.80;99.90
15133;DHT22;7667;51.232;17.110;2023-04-16T02:32:33;5.60;99.90
15133;DHT22;7667;51.232;17.110;2023-04-16T02:35:00;5.50;99.90
15133;DHT22;7667;51.232;17.110;2023-04-16T02:37:29;5.50;99.90
15133;DHT22;7667;51.232;17.110;2023-04-16T02:39:57;5.60;99.90
15133;DHT22;7667;51.232;17.110;2023-04-16T02:42:24;5.60;99.90
15133;DHT22;7667;51.232;17.110;2023-04-16T02:44:52;5.60;99.90
15133;DHT22;7667;51.232;17.110;2023-04-16T02:47:19;5.70;99.90
15133;DHT22;7667;51.232;17.110;2023-04-16T02:49:47;5.70;99.90
15133;DHT22;7667;51.232;17.110;2023-04-16T02:52:14;5.70;99.90
15133;DHT22;7667;51.232;17.110;2023-04-16T02:54:42;5.70;99.90
15133;DHT22;7667;51.232;17.110;2023-04-16T02:57:09;5.70;99.90
15133;DHT22;7667;51.232;17.110;2023-04-16T02:59:37;5.70;99.90
15133;DHT22;7667;51.232;17.110;2023-04-16T03:02:04;5.70;99.90
15133;DHT22;7667;51.232;17.110;2023-04-16T03:04:32;5.70;99.90
15133;DHT22;7667;51.232;17.110;2023-04-16T03:07:00;5.70;99.90
15133;DHT22;7667;51.232;17.110;2023-04-16T03:09:27;5.60;99.90
15133;DHT22;7667;51.232;17.110;2023-04-16T03:11:55;5.60;99.90
15133;DHT22;7667;51.232;17.110;2023-04-16T03:14:22;5.60;99.90
15133;DHT22;7667;51.232;17.110;2023-04-16T03:16:50;5.50;99.90
15133;DHT22;7667;51.232;17.110;2023-04-16T03:19:17;5.40;99.90
15133;DHT22;7667;51.232;17.110;2023-04-16T03:21:45;5.30;99.90
15133;DHT22;7667;51.232;17.110;2023-04-16T03:24:13;5.30;99.90
15133;DHT22;7667;51.232;17.110;2023-04-16T03:26:40;5.30;99.90
15133;DHT22;7667;51.232;17.110;2023-04-16T03:29:08;5.30;99.90
15133;DHT22;7667;51.232;17.110;2023-04-16T03:31:36;5.30;99.90
15133;DHT22;7667;51.232;17.110;2023-04-16T03:34:03;5.30;99.90
15133;DHT22;7667;51.232;17.110;2023-04-16T03:36:31;5.30;99.90
15133;DHT22;7667;51.232;17.110;2023-04-16T03:38:58;5.30;99.90
15133;DHT22;7667;51.232;17.110;2023-04-16T03:41:26;5.40;99.90
15133;DHT22;7667;51.232;17.110;2023-04-16T03:43:54;5.50;99.90
15133;DHT22;7667;51.232;17.110;2023-04-16T03:46:21;5.60;99.90
15133;DHT22;7667;51.232;17.110;2023-04-16T03:48:49;5.60;99.90
15133;DHT22;7667;51.232;17.110;2023-04-16T03:51:19;5.60;99.90
15133;DHT22;7667;51.232;17.110;2023-04-16T03:53:47;5.50;99.90
15133;DHT22;7667;51.232;17.110;2023-04-16T03:56:14;5.50;99.90
15133;DHT22;7667;51.232;17.110;2023-04-16T03:58:42;5.50;99.90
15133;DHT22;7667;51.232;17.110;2023-04-16T04:01:09;5.50;99.90
15133;DHT22;7667;51.232;17.110;2023-04-16T04:03:37;5.60;99.90
15133;DHT22;7667;51.232;17.110;2023-04-16T04:06:08;5.60;99.90
15133;DHT22;7667;51.232;17.110;2023-04-16T04:08:35;5.70;99.90
15133;DHT22;7667;51.232;17.110;2023-04-16T04:11:03;5.70;99.90
15133;DHT22;7667;51.232;17.110;2023-04-16T04:13:31;5.80;99.90
15133;DHT22;7667;51.232;17.110;2023-04-16T04:15:58;5.80;99.90
15133;DHT22;7667;51.232;17.110;2023-04-16T04:18:26;5.90;99.90
15133;DHT22;7667;51.232;17.110;2023-04-16T04:20:53;5.90;99.90
15133;DHT22;7667;51.232;17.110;2023-04-16T04:23:21;6.00;99.90
15133;DHT22;7667;51.232;17.110;2023-04-16T04:25:48;6.00;99.90
15133;DHT22;7667;51.232;17.110;2023-04-16T04:28:16;6.00;99.90
15133;DHT22;7667;51.232;17.110;2023-04-16T04:30:43;5.90;99.90
15133;DHT22;7667;51.232;17.110;2023-04-16T04:33:11;5.80;99.90
15133;DHT22;7667;51.232;17.110;2023-04-16T04:35:38;5.70;99.90
15133;DHT22;7667;51.232;17.110;2023-04-16T04:38:06;5.70;99.90
15133;DHT22;7667;51.232;17.110;2023-04-16T04:40:33;5.80;99.90
15133;DHT22;7667;51.232;17.110;2023-04-16T04:43:01;5.70;99.90
15133;DHT22;7667;51.232;17.110;2023-04-16T04:45:29;5.80;99.90
15133;DHT22;7667;51.232;17.110;2023-04-16T04:47:58;5.80;99.90
15133;DHT22;7667;51.232;17.110;2023-04-16T04:50:25;5.80;99.90
15133;DHT22;7667;51.232;17.110;2023-04-16T04:52:53;5.80;99.90
15133;DHT22;7667;51.232;17.110;2023-04-16T04:55:20;5.80;99.90
15133;DHT22;7667;51.232;17.110;2023-04-16T04:57:48;5.90;99.90
15133;DHT22;7667;51.232;17.110;2023-04-16T05:00:16;5.90;99.90
15133;DHT22;7667;51.232;17.110;2023-04-16T05:02:44;5.80;99.90
15133;DHT22;7667;51.232;17.110;2023-04-16T05:05:13;5.70;99.90
15133;DHT22;7667;51.232;17.110;2023-04-16T05:07:41;5.70;99.90
15133;DHT22;7667;51.232;17.110;2023-04-16T05:10:09;5.80;99.90
15133;DHT22;7667;51.232;17.110;2023-04-16T05:12:36;5.90;99.90
15133;DHT22;7667;51.232;17.110;2023-04-16T05:15:04;5.80;99.90
15133;DHT22;7667;51.232;17.110;2023-04-16T05:17:32;5.80;99.90
15133;DHT22;7667;51.232;17.110;2023-04-16T05:19:59;6.00;99.90
15133;DHT22;7667;51.232;17.110;2023-04-16T05:22:27;6.30;99.90
15133;DHT22;7667;51.232;17.110;2023-04-16T05:24:54;6.50;99.90
15133;DHT22;7667;51.232;17.110;2023-04-16T05:27:22;6.80;99.90
15133;DHT22;7667;51.232;17.110;2023-04-16T05:29:49;7.10;99.90
15133;DHT22;7667;51.232;17.110;2023-04-16T05:32:17;7.20;99.90
15133;DHT22;7667;51.232;17.110;2023-04-16T05:34:45;7.40;99.90
15133;DHT22;7667;51.232;17.110;2023-04-16T05:37:12;7.50;99.90
15133;DHT22;7667;51.232;17.110;2023-04-16T05:39:40;7.60;99.90
15133;DHT22;7667;51.232;17.110;2023-04-16T05:42:07;7.70;99.90
15133;DHT22;7667;51.232;17.110;2023-04-16T05:44:35;7.60;99.90
15133;DHT22;7667;51.232;17.110;2023-04-16T05:47:03;7.50;99.90
15133;DHT22;7667;51.232;17.110;2023-04-16T05:49:31;7.40;99.90
15133;DHT22;7667;51.232;17.110;2023-04-16T05:51:58;7.50;99.90
15133;DHT22;7667;51.232;17.110;2023-04-16T05:54:26;7.40;99.90
15133;DHT22;7667;51.232;17.110;2023-04-16T05:56:53;7.30;99.90
15133;DHT22;7667;51.232;17.110;2023-04-16T05:59:21;7.30;99.90
15133;DHT22;7667;51.232;17.110;2023-04-16T06:01:48;7.10;99.90
15133;DHT22;7667;51.232;17.110;2023-04-16T06:04:16;6.90;99.90
15133;DHT22;7667;51.232;17.110;2023-04-16T06:06:43;6.80;99.90
15133;DHT22;7667;51.232;17.110;2023-04-16T06:09:11;6.70;99.90
15133;DHT22;7667;51.232;17.110;2023-04-16T06:11:38;6.80;99.90
15133;DHT22;7667;51.232;17.110;2023-04-16T06:14:06;6.70;99.90
15133;DHT22;7667;51.232;17.110;2023-04-16T06:16:34;6.70;99.90
15133;DHT22;7667;51.232;17.110;2023-04-16T06:19:01;6.70;99.90
15133;DHT22;7667;51.232;17.110;2023-04-16T06:21:29;6.60;99.90
15133;DHT22;7667;51.232;17.110;2023-04-16T06:23:57;6.60;99.90
15133;DHT22;7667;51.232;17.110;2023-04-16T06:26:25;6.50;99.90
15133;DHT22;7667;51.232;17.110;2023-04-16T06:28:52;6.50;99.90
15133;DHT22;7667;51.232;17.110;2023-04-16T06:31:20;6.50;99.90
15133;DHT22;7667;51.232;17.110;2023-04-16T06:33:47;6.60;99.90
15133;DHT22;7667;51.232;17.110;2023-04-16T06:36:15;6.70;99.90
15133;DHT22;7667;51.232;17.110;2023-04-16T06:38:43;6.90;99.90
15133;DHT22;7667;51.232;17.110;2023-04-16T06:41:11;7.20;99.90
15133;DHT22;7667;51.232;17.110;2023-04-16T06:43:40;7.30;99.90
15133;DHT22;7667;51.232;17.110;2023-04-16T06:46:07;7.40;99.90
15133;DHT22;7667;51.232;17.110;2023-04-16T06:48:35;7.50;99.90
15133;DHT22;7667;51.232;17.110;2023-04-16T06:51:03;7.40;99.90
15133;DHT22;7667;51.232;17.110;2023-04-16T06:53:30;7.50;99.90
15133;DHT22;7667;51.232;17.110;2023-04-16T06:55:59;7.10;99.90
15133;DHT22;7667;51.232;17.110;2023-04-16T06:58:26;7.00;99.90
15133;DHT22;7667;51.232;17.110;2023-04-16T07:00:53;7.10;99.90
15133;DHT22;7667;51.232;17.110;2023-04-16T07:03:21;7.10;99.90
15133;DHT22;7667;51.232;17.110;2023-04-16T07:05:49;7.10;99.90
15133;DHT22;7667;51.232;17.110;2023-04-16T07:08:17;7.20;99.90
15133;DHT22;7667;51.232;17.110;2023-04-16T07:10:44;7.40;99.90
15133;DHT22;7667;51.232;17.110;2023-04-16T07:13:12;7.60;99.90
15133;DHT22;7667;51.232;17.110;2023-04-16T07:15:39;7.80;99.90
15133;DHT22;7667;51.232;17.110;2023-04-16T07:18:07;8.10;99.90
15133;DHT22;7667;51.232;17.110;2023-04-16T07:20:34;8.30;99.90
15133;DHT22;7667;51.232;17.110;2023-04-16T07:23:02;8.30;99.90
15133;DHT22;7667;51.232;17.110;2023-04-16T07:25:30;8.50;99.90
15133;DHT22;7667;51.232;17.110;2023-04-16T07:27:57;8.80;99.90
15133;DHT22;7667;51.232;17.110;2023-04-16T07:30:25;9.00;99.90
15133;DHT22;7667;51.232;17.110;2023-04-16T07:32:59;9.10;99.90
15133;DHT22;7667;51.232;17.110;2023-04-16T07:35:29;9.30;99.90
15133;DHT22;7667;51.232;17.110;2023-04-16T07:37:57;9.30;99.90
15133;DHT22;7667;51.232;17.110;2023-04-16T07:40:25;9.30;99.90
15133;DHT22;7667;51.232;17.110;2023-04-16T07:42:53;9.30;99.90
15133;DHT22;7667;51.232;17.110;2023-04-16T07:45:22;9.40;99.90
15133;DHT22;7667;51.232;17.110;2023-04-16T07:47:49;9.40;99.90
15133;DHT22;7667;51.232;17.110;2023-04-16T07:50:17;9.50;99.90
15133;DHT22;7667;51.232;17.110;2023-04-16T07:52:46;9.60;99.90
15133;DHT22;7667;51.232;17.110;2023-04-16T07:55:13;9.60;99.90
15133;DHT22;7667;51.232;17.110;2023-04-16T07:57:41;9.60;99.90
15133;DHT22;7667;51.232;17.110;2023-04-16T08:00:09;9.80;99.90
15133;DHT22;7667;51.232;17.110;2023-04-16T08:02:37;10.00;99.90
15133;DHT22;7667;51.232;17.110;2023-04-16T08:05:05;10.20;99.90
15133;DHT22;7667;51.232;17.110;2023-04-16T08:07:33;10.40;99.90
15133;DHT22;7667;51.232;17.110;2023-04-16T08:10:01;10.30;99.90
15133;DHT22;7667;51.232;17.110;2023-04-16T08:12:29;10.30;99.90
15133;DHT22;7667;51.232;17.110;2023-04-16T08:14:56;10.50;99.90
15133;DHT22;7667;51.232;17.110;2023-04-16T08:17:24;10.60;99.90
15133;DHT22;7667;51.232;17.110;2023-04-16T08:19:52;10.70;99.90
15133;DHT22;7667;51.232;17.110;2023-04-16T08:22:19;10.90;99.90
15133;DHT22;7667;51.232;17.110;2023-04-16T08:24:48;11.20;99.90
15133;DHT22;7667;51.232;17.110;2023-04-16T08:27:15;11.30;99.90
15133;DHT22;7667;51.232;17.110;2023-04-16T08:29:46;11.30;99.90
15133;DHT22;7667;51.232;17.110;2023-04-16T08:32:14;11.20;99.90
15133;DHT22;7667;51.232;17.110;2023-04-16T08:34:42;11.50;99.90
15133;DHT22;7667;51.232;17.110;2023-04-16T08:37:09;11.80;99.90
15133;DHT22;7667;51.232;17.110;2023-04-16T08:39:37;12.00;99.90
15133;DHT22;7667;51.232;17.110;2023-04-16T08:42:05;12.30;99.90
15133;DHT22;7667;51.232;17.110;2023-04-16T08:44:43;12.60;99.90
15133;DHT22;7667;51.232;17.110;2023-04-16T08:47:15;12.90;99.90
15133;DHT22;7667;51.232;17.110;2023-04-16T08:49:44;13.50;99.90
15133;DHT22;7667;51.232;17.110;2023-04-16T08:52:18;13.90;99.90
15133;DHT22;7667;51.232;17.110;2023-04-16T08:55:05;14.20;99.90
15133;DHT22;7667;51.232;17.110;2023-04-16T08:57:49;14.50;99.90
15133;DHT22;7667;51.232;17.110;2023-04-16T09:00:19;14.90;99.90
15133;DHT22;7667;51.232;17.110;2023-04-16T09:02:47;15.00;99.90
15133;DHT22;7667;51.232;17.110;2023-04-16T09:05:17;15.00;99.90
15133;DHT22;7667;51.232;17.110;2023-04-16T09:07:52;15.30;99.90
15133;DHT22;7667;51.232;17.110;2023-04-16T09:10:22;15.30;99.90
15133;DHT22;7667;51.232;17.110;2023-04-16T09:12:54;14.90;99.90
15133;DHT22;7667;51.232;17.110;2023-04-16T09:15:23;14.70;99.90
15133;DHT22;7667;51.232;17.110;2023-04-16T09:17:55;14.60;99.90
15133;DHT22;7667;51.232;17.110;2023-04-16T09:20:23;14.90;99.90
15133;DHT22;7667;51.232;17.110;2023-04-16T09:22:51;15.10;99.90
15133;DHT22;7667;51.232;17.110;2023-04-16T09:25:20;15.10;99.90
15133;DHT22;7667;51.232;17.110;2023-04-16T09:27:49;14.90;99.90
15133;DHT22;7667;51.232;17.110;2023-04-16T09:30:25;14.90;99.90
15133;DHT22;7667;51.232;17.110;2023-04-16T09:33:19;15.20;99.90
15133;DHT22;7667;51.232;17.110;2023-04-16T09:35:51;14.90;99.90
15133;DHT22;7667;51.232;17.110;2023-04-16T09:38:19;14.40;99.90
15133;DHT22;7667;51.232;17.110;2023-04-16T09:40:47;14.10;99.90
15133;DHT22;7667;51.232;17.110;2023-04-16T09:43:17;13.80;99.90
15133;DHT22;7667;51.232;17.110;2023-04-16T09:48:29;13.50;99.90
15133;DHT22;7667;51.232;17.110;2023-04-16T09:50:59;13.30;99.90
15133;DHT22;7667;51.232;17.110;2023-04-16T09:53:31;13.20;99.90
15133;DHT22;7667;51.232;17.110;2023-04-16T09:56:03;13.00;99.90
15133;DHT22;7667;51.232;17.110;2023-04-16T09:58:35;12.90;99.90
15133;DHT22;7667;51.232;17.110;2023-04-16T10:01:08;13.00;99.90
15133;DHT22;7667;51.232;17.110;2023-04-16T10:03:40;13.10;99.90
15133;DHT22;7667;51.232;17.110;2023-04-16T10:06:17;13.30;99.90
15133;DHT22;7667;51.232;17.110;2023-04-16T10:08:47;13.30;99.90
15133;DHT22;7667;51.232;17.110;2023-04-16T10:11:17;13.60;99.90
15133;DHT22;7667;51.232;17.110;2023-04-16T10:13:46;13.80;99.90
15133;DHT22;7667;51.232;17.110;2023-04-16T10:16:14;14.20;99.90
15133;DHT22;7667;51.232;17.110;2023-04-16T10:18:43;14.40;99.90
15133;DHT22;7667;51.232;17.110;2023-04-16T10:21:12;14.50;99.90
15133;DHT22;7667;51.232;17.110;2023-04-16T10:23:42;14.60;99.90
15133;DHT22;7667;51.232;17.110;2023-04-16T10:26:10;14.60;99.90
15133;DHT22;7667;51.232;17.110;2023-04-16T10:28:38;14.60;99.90
15133;DHT22;7667;51.232;17.110;2023-04-16T10:31:07;14.40;99.90
15133;DHT22;7667;51.232;17.110;2023-04-16T10:33:38;14.50;99.90
15133;DHT22;7667;51.232;17.110;2023-04-16T10:36:11;14.80;99.90
15133;DHT22;7667;51.232;17.110;2023-04-16T10:38:50;15.00;99.90
15133;DHT22;7667;51.232;17.110;2023-04-16T10:41:21;15.10;99.90
15133;DHT22;7667;51.232;17.110;2023-04-16T10:43:49;15.20;99.90
15133;DHT22;7667;51.232;17.110;2023-04-16T10:46:24;14.90;99.90
15133;DHT22;7667;51.232;17.110;2023-04-16T10:56:53;13.90;99.90
15133;DHT22;7667;51.232;17.110;2023-04-16T10:59:23;13.90;99.90
15133;DHT22;7667;51.232;17.110;2023-04-16T11:01:54;14.30;99.90
15133;DHT22;7667;51.232;17.110;2023-04-16T11:10:00;14.90;99.90
15133;DHT22;7667;51.232;17.110;2023-04-16T11:12:34;14.70;99.90
15133;DHT22;7667;51.232;17.110;2023-04-16T11:15:08;15.00;99.90
15133;DHT22;7667;51.232;17.110;2023-04-16T11:17:44;15.10;99.90
15133;DHT22;7667;51.232;17.110;2023-04-16T11:20:23;15.70;99.90
15133;DHT22;7667;51.232;17.110;2023-04-16T11:22:53;17.00;99.90
15133;DHT22;7667;51.232;17.110;2023-04-16T11:25:27;17.40;99.90
15133;DHT22;7667;51.232;17.110;2023-04-16T11:27:56;16.80;99.90
15133;DHT22;7667;51.232;17.110;2023-04-16T11:30:32;16.40;99.90
15133;DHT22;7667;51.232;17.110;2023-04-16T11:33:11;17.20;99.90
15133;DHT22;7667;51.232;17.110;2023-04-16T11:35:39;17.70;99.90
15133;DHT22;7667;51.232;17.110;2023-04-16T11:38:07;18.00;99.60
15133;DHT22;7667;51.232;17.110;2023-04-16T11:40:35;18.10;98.30
15133;DHT22;7667;51.232;17.110;2023-04-16T11:43:23;17.80;97.30
15133;DHT22;7667;51.232;17.110;2023-04-16T11:46:03;17.80;99.90
15133;DHT22;7667;51.232;17.110;2023-04-16T11:48:53;18.30;95.00
15133;DHT22;7667;51.232;17.110;2023-04-16T11:51:25;19.40;94.40
15133;DHT22;7667;51.232;17.110;2023-04-16T11:53:53;18.20;94.10
15133;DHT22;7667;51.232;17.110;2023-04-16T11:56:28;17.20;96.60
15133;DHT22;7667;51.232;17.110;2023-04-16T11:59:10;17.90;95.70
15133;DHT22;7667;51.232;17.110;2023-04-16T12:01:41;18.80;95.60
15133;DHT22;7667;51.232;17.110;2023-04-16T12:04:17;19.10;92.80
15133;DHT22;7667;51.232;17.110;2023-04-16T12:07:05;18.00;93.70
15133;DHT22;7667;51.232;17.110;2023-04-16T12:09:38;17.10;96.50
15133;DHT22;7667;51.232;17.110;2023-04-16T12:12:26;16.80;95.60
15133;DHT22;7667;51.232;17.110;2023-04-16T12:14:58;17.10;99.90
15133;DHT22;7667;51.232;17.110;2023-04-16T12:17:33;18.50;98.90
15133;DHT22;7667;51.232;17.110;2023-04-16T12:20:03;20.80;93.60
15133;DHT22;7667;51.232;17.110;2023-04-16T12:22:43;20.90;91.00
15133;DHT22;7667;51.232;17.110;2023-04-16T12:25:15;20.60;84.70
15133;DHT22;7667;51.232;17.110;2023-04-16T12:27:53;21.00;82.60
15133;DHT22;7667;51.232;17.110;2023-04-16T12:30:23;19.90;81.40
15133;DHT22;7667;51.232;17.110;2023-04-16T12:33:15;19.00;86.70
15133;DHT22;7667;51.232;17.110;2023-04-16T12:35:43;19.20;88.00
15133;DHT22;7667;51.232;17.110;2023-04-16T12:38:11;19.00;86.70
15133;DHT22;7667;51.232;17.110;2023-04-16T12:40:41;18.50;87.20
15133;DHT22;7667;51.232;17.110;2023-04-16T12:43:09;19.40;85.70
15133;DHT22;7667;51.232;17.110;2023-04-16T12:45:40;20.40;79.60
15133;DHT22;7667;51.232;17.110;2023-04-16T12:48:08;19.20;80.90
15133;DHT22;7667;51.232;17.110;2023-04-16T12:50:36;17.90;82.80
15133;DHT22;7667;51.232;17.110;2023-04-16T12:53:05;17.10;87.20
15133;DHT22;7667;51.232;17.110;2023-04-16T12:55:33;16.40;90.20
15133;DHT22;7667;51.232;17.110;2023-04-16T12:58:00;17.50;90.40
15133;DHT22;7667;51.232;17.110;2023-04-16T13:00:28;19.20;83.60
15133;DHT22;7667;51.232;17.110;2023-04-16T13:02:55;20.50;79.60
15133;DHT22;7667;51.232;17.110;2023-04-16T13:05:23;21.20;76.60
15133;DHT22;7667;51.232;17.110;2023-04-16T13:07:51;21.60;72.20
15133;DHT22;7667;51.232;17.110;2023-04-16T13:10:20;21.20;71.00
15133;DHT22;7667;51.232;17.110;2023-04-16T13:12:49;20.80;69.00
15133;DHT22;7667;51.232;17.110;2023-04-16T13:15:17;20.80;70.80
15133;DHT22;7667;51.232;17.110;2023-04-16T13:17:44;20.10;70.60
15133;DHT22;7667;51.232;17.110;2023-04-16T13:20:12;21.40;72.10
15133;DHT22;7667;51.232;17.110;2023-04-16T13:22:39;21.80;66.90
15133;DHT22;7667;51.232;17.110;2023-04-16T13:25:07;21.20;66.60
15133;DHT22;7667;51.232;17.110;2023-04-16T13:27:35;19.70;68.90
15133;DHT22;7667;51.232;17.110;2023-04-16T13:30:03;18.30;72.00
15133;DHT22;7667;51.232;17.110;2023-04-16T13:32:31;18.00;74.70
15133;DHT22;7667;51.232;17.110;2023-04-16T13:34:59;17.40;77.00
15133;DHT22;7667;51.232;17.110;2023-04-16T13:37:27;16.80;79.40
15133;DHT22;7667;51.232;17.110;2023-04-16T13:39:54;16.70;80.90
15133;DHT22;7667;51.232;17.110;2023-04-16T13:42:22;16.50;83.60
15133;DHT22;7667;51.232;17.110;2023-04-16T13:44:50;16.60;85.10
15133;DHT22;7667;51.232;17.110;2023-04-16T13:47:20;17.10;86.10
15133;DHT22;7667;51.232;17.110;2023-04-16T13:49:48;18.00;83.40
15133;DHT22;7667;51.232;17.110;2023-04-16T13:52:15;18.50;79.30
15133;DHT22;7667;51.232;17.110;2023-04-16T13:54:43;18.10;78.00
15133;DHT22;7667;51.232;17.110;2023-04-16T13:57:10;17.80;78.80
15133;DHT22;7667;51.232;17.110;2023-04-16T13:59:38;18.60;82.60
15133;DHT22;7667;51.232;17.110;2023-04-16T14:02:06;20.50;78.20
15133;DHT22;7667;51.232;17.110;2023-04-16T14:04:36;22.40;71.10
15133;DHT22;7667;51.232;17.110;2023-04-16T14:07:04;22.30;64.00
15133;DHT22;7667;51.232;17.110;2023-04-16T14:09:31;21.30;66.70
15133;DHT22;7667;51.232;17.110;2023-04-16T14:11:59;19.60;69.40
15133;DHT22;7667;51.232;17.110;2023-04-16T14:14:26;18.80;72.10
15133;DHT22;7667;51.232;17.110;2023-04-16T14:16:54;18.00;74.20
15133;DHT22;7667;51.232;17.110;2023-04-16T14:19:24;18.00;76.20
15133;DHT22;7667;51.232;17.110;2023-04-16T14:21:52;17.90;75.40
15133;DHT22;7667;51.232;17.110;2023-04-16T14:24:20;17.50;75.40
15133;DHT22;7667;51.232;17.110;2023-04-16T14:26:47;17.10;76.50
15133;DHT22;7667;51.232;17.110;2023-04-16T14:29:15;17.40;81.30
15133;DHT22;7667;51.232;17.110;2023-04-16T14:31:42;17.60;77.70
15133;DHT22;7667;51.232;17.110;2023-04-16T14:34:10;17.40;78.50
15133;DHT22;7667;51.232;17.110;2023-04-16T14:36:38;17.10;80.00
15133;DHT22;7667;51.232;17.110;2023-04-16T14:39:05;16.90;81.50
15133;DHT22;7667;51.232;17.110;2023-04-16T14:41:33;16.80;82.70
15133;DHT22;7667;51.232;17.110;2023-04-16T14:44:00;16.60;82.40
15133;DHT22;7667;51.232;17.110;2023-04-16T14:46:30;16.80;83.00
15133;DHT22;7667;51.232;17.110;2023-04-16T14:48:59;17.20;82.20
15133;DHT22;7667;51.232;17.110;2023-04-16T14:51:27;17.70;83.90
15133;DHT22;7667;51.232;17.110;2023-04-16T14:53:55;18.20;79.40
15133;DHT22;7667;51.232;17.110;2023-04-16T14:56:22;18.40;79.50
15133;DHT22;7667;51.232;17.110;2023-04-16T14:58:50;18.60;77.50
15133;DHT22;7667;51.232;17.110;2023-04-16T15:01:17;18.40;77.60
15133;DHT22;7667;51.232;17.110;2023-04-16T15:03:45;17.90;79.00
15133;DHT22;7667;51.232;17.110;2023-04-16T15:06:13;17.60;80.60
15133;DHT22;7667;51.232;17.110;2023-04-16T15:08:42;17.60;81.10
15133;DHT22;7667;51.232;17.110;2023-04-16T15:11:10;17.30;82.90
15133;DHT22;7667;51.232;17.110;2023-04-16T15:13:37;17.30;82.90
15133;DHT22;7667;51.232;17.110;2023-04-16T15:16:05;18.60;79.80
15133;DHT22;7667;51.232;17.110;2023-04-16T15:18:32;19.40;78.10
15133;DHT22;7667;51.232;17.110;2023-04-16T15:21:00;19.30;75.30
15133;DHT22;7667;51.232;17.110;2023-04-16T15:23:28;18.80;75.00
15133;DHT22;7667;51.232;17.110;2023-04-16T15:25:55;18.70;76.30
15133;DHT22;7667;51.232;17.110;2023-04-16T15:28:23;18.70;79.90
15133;DHT22;7667;51.232;17.110;2023-04-16T15:30:51;20.30;80.40
15133;DHT22;7667;51.232;17.110;2023-04-16T15:33:22;22.90;71.90
15133;DHT22;7667;51.232;17.110;2023-04-16T15:35:50;24.60;64.20
15133;DHT22;7667;51.232;17.110;2023-04-16T15:38:18;25.60;61.60
15133;DHT22;7667;51.232;17.110;2023-04-16T15:40:47;26.40;54.60
15133;DHT22;7667;51.232;17.110;2023-04-16T15:43:15;27.00;53.50
15133;DHT22;7667;51.232;17.110;2023-04-16T15:45:42;25.20;53.60
15133;DHT22;7667;51.232;17.110;2023-04-16T15:48:10;22.80;56.50
15133;DHT22;7667;51.232;17.110;2023-04-16T15:50:37;20.90;61.00
15133;DHT22;7667;51.232;17.110;2023-04-16T15:53:05;19.20;64.80
15133;DHT22;7667;51.232;17.110;2023-04-16T15:55:33;18.50;68.10
15133;DHT22;7667;51.232;17.110;2023-04-16T15:58:01;17.80;71.50
15133;DHT22;7667;51.232;17.110;2023-04-16T16:00:29;17.40;77.00
15133;DHT22;7667;51.232;17.110;2023-04-16T16:02:57;17.10;78.90
15133;DHT22;7667;51.232;17.110;2023-04-16T16:05:24;17.00;78.60